Time;durP1;ratioP1;P1;durP2;ratioP2;P2;SDS_P1;SDS_P2;PMS_P1;PMS_P2;Temp;Humidity;BMP_temperature;BMP_pressure;BME280_temperature;BME280_humidity;BME280_pressure;Samples;Min_cycle;Max_cycle;Signal;HPM_P1;HPM_P2
2021/07/02 00:01:17;;;;;;;11.02;5.78;;;15.40;99.90;;;;;;5031103;28;20386;-53
2021/07/02 00:03:43;;;;;;;8.85;5.72;;;15.30;99.90;;;;;;5031431;28;20029;-54
2021/07/02 00:06:08;;;;;;;8.88;5.85;;;15.30;99.90;;;;;;5029471;28;20433;-54
2021/07/02 00:08:34;;;;;;;8.18;5.35;;;15.30;99.90;;;;;;5031024;28;20053;-54
2021/07/02 00:11:00;;;;;;;7.63;5.80;;;15.30;99.90;;;;;;5031264;28;20410;-54
2021/07/02 00:13:26;;;;;;;8.65;5.72;;;15.40;99.90;;;;;;5035321;28;20027;-53
2021/07/02 00:15:51;;;;;;;7.78;5.72;;;15.40;99.90;;;;;;5035077;28;20436;-54
2021/07/02 00:18:17;;;;;;;8.98;5.65;;;15.20;99.90;;;;;;5034977;28;20061;-53
2021/07/02 00:20:43;;;;;;;7.30;5.53;;;15.20;99.90;;;;;;5034966;28;20383;-54
2021/07/02 00:23:08;;;;;;;10.02;6.10;;;15.20;99.90;;;;;;5035427;28;20552;-54
2021/07/02 00:25:37;;;;;;;8.73;5.63;;;15.20;99.90;;;;;;5033556;28;20057;-54
2021/07/02 00:28:06;;;;;;;13.93;5.93;;;15.30;99.90;;;;;;5035007;28;20091;-54
2021/07/02 00:30:34;;;;;;;10.55;5.97;;;15.30;99.90;;;;;;5034676;28;20536;-53
2021/07/02 00:32:59;;;;;;;12.93;6.15;;;15.30;99.90;;;;;;5034651;28;20021;-54
2021/07/02 00:35:25;;;;;;;10.10;6.20;;;15.40;99.90;;;;;;5034898;28;20029;-54
2021/07/02 00:37:51;;;;;;;9.25;5.70;;;15.40;99.90;;;;;;5034846;28;20509;-54
2021/07/02 00:40:16;;;;;;;10.90;6.25;;;15.50;99.90;;;;;;5016855;28;20112;-54
2021/07/02 00:42:42;;;;;;;11.55;5.55;;;15.40;99.90;;;;;;5034471;28;20474;-53
2021/07/02 00:45:09;;;;;;;9.65;5.35;;;15.40;99.90;;;;;;5034853;28;20064;-55
2021/07/02 00:47:35;;;;;;;12.50;6.57;;;15.50;99.90;;;;;;5034347;28;20025;-54
2021/07/02 00:50:00;;;;;;;6.82;5.60;;;15.30;99.90;;;;;;5034444;28;20025;-54
2021/07/02 00:52:26;;;;;;;11.50;6.45;;;15.30;99.90;;;;;;5034746;28;20033;-54
2021/07/02 00:54:52;;;;;;;10.73;6.10;;;15.30;99.90;;;;;;5033027;28;20022;-54
2021/07/02 00:57:18;;;;;;;11.02;6.28;;;15.20;99.90;;;;;;5034207;28;20021;-54
2021/07/02 00:59:44;;;;;;;8.40;6.03;;;15.20;99.90;;;;;;5034149;28;20037;-54
2021/07/02 01:02:10;;;;;;;7.63;6.03;;;15.20;99.90;;;;;;5034225;28;20032;-54
2021/07/02 01:04:36;;;;;;;11.85;6.30;;;15.20;99.90;;;;;;5034359;28;20040;-53
2021/07/02 01:07:03;;;;;;;14.10;6.10;;;15.00;99.90;;;;;;5033969;28;20382;-53
2021/07/02 01:09:29;;;;;;;13.82;6.68;;;15.00;99.90;;;;;;5033858;28;20030;-53
2021/07/02 01:11:55;;;;;;;10.02;6.50;;;14.90;99.90;;;;;;5034098;28;20104;-53
2021/07/02 01:14:21;;;;;;;9.73;6.47;;;15.00;99.90;;;;;;5034174;28;20029;-53
2021/07/02 01:16:47;;;;;;;13.02;6.55;;;15.00;99.90;;;;;;5034067;28;20025;-53
2021/07/02 01:19:16;;;;;;;15.68;6.57;;;15.00;99.90;;;;;;5033882;28;20430;-53
2021/07/02 01:21:42;;;;;;;7.65;6.03;;;15.10;99.90;;;;;;5033816;28;20021;-53
2021/07/02 01:24:08;;;;;;;9.63;6.32;;;15.20;99.90;;;;;;5033828;28;20034;-53
2021/07/02 01:26:34;;;;;;;9.93;6.10;;;15.20;99.90;;;;;;5032489;28;20091;-53
2021/07/02 01:29:00;;;;;;;12.93;6.35;;;15.10;99.90;;;;;;5033724;28;20060;-53
2021/07/02 01:31:27;;;;;;;10.93;6.50;;;15.20;99.90;;;;;;5033239;28;20050;-53
2021/07/02 01:33:52;;;;;;;11.07;7.43;;;15.10;99.90;;;;;;5033539;28;20021;-54
2021/07/02 01:36:21;;;;;;;8.65;6.72;;;15.10;99.90;;;;;;5033869;28;20033;-53
2021/07/02 01:38:47;;;;;;;12.32;7.03;;;15.00;99.90;;;;;;5033521;28;20096;-53
2021/07/02 01:41:13;;;;;;;8.45;7.03;;;15.00;99.90;;;;;;5033516;28;20101;-53
2021/07/02 01:43:39;;;;;;;10.80;7.55;;;14.90;99.90;;;;;;5033470;28;20032;-53
2021/07/02 01:46:04;;;;;;;10.30;7.05;;;14.80;99.90;;;;;;5033625;28;20029;-53
2021/07/02 01:48:30;;;;;;;11.15;6.85;;;14.80;99.90;;;;;;5033493;28;20036;-53
2021/07/02 01:50:56;;;;;;;9.93;6.93;;;14.80;99.90;;;;;;5033286;28;20102;-53
2021/07/02 01:53:22;;;;;;;9.68;7.10;;;14.80;99.90;;;;;;5033421;28;20441;-53
2021/07/02 01:55:48;;;;;;;16.25;8.20;;;14.70;99.90;;;;;;5033341;28;20029;-53
2021/07/02 01:58:13;;;;;;;10.82;7.03;;;14.70;99.90;;;;;;5033532;28;20025;-53
2021/07/02 02:00:39;;;;;;;11.45;7.05;;;14.70;99.90;;;;;;5033185;28;20390;-53
2021/07/02 02:03:05;;;;;;;13.48;7.30;;;14.70;99.90;;;;;;5033212;28;20030;-53
2021/07/02 02:05:30;;;;;;;11.98;7.45;;;14.80;99.90;;;;;;5033193;28;20135;-53
2021/07/02 02:07:56;;;;;;;11.07;6.97;;;14.70;99.90;;;;;;5033254;28;20025;-54
2021/07/02 02:10:22;;;;;;;9.40;6.72;;;14.70;99.90;;;;;;5033295;28;20025;-53
2021/07/02 02:12:47;;;;;;;15.60;7.65;;;14.60;99.90;;;;;;5032959;28;20072;-53
2021/07/02 02:15:13;;;;;;;9.88;7.30;;;14.60;99.90;;;;;;5031750;28;20028;-53
2021/07/02 02:17:39;;;;;;;11.85;7.53;;;14.70;99.90;;;;;;5032855;28;20021;-53
2021/07/02 02:20:07;;;;;;;11.13;7.13;;;14.70;99.90;;;;;;5032749;28;20087;-54
2021/07/02 02:22:33;;;;;;;13.15;7.97;;;14.80;99.90;;;;;;5032796;28;20081;-54
2021/07/02 02:24:59;;;;;;;15.18;8.32;;;14.70;99.90;;;;;;5033035;28;20072;-54
2021/07/02 02:27:25;;;;;;;12.52;7.80;;;14.60;99.90;;;;;;5032901;28;20040;-54
2021/07/02 02:29:51;;;;;;;13.15;8.10;;;14.60;99.90;;;;;;5032655;28;20456;-54
2021/07/02 02:32:18;;;;;;;10.75;7.45;;;14.60;99.90;;;;;;5032541;28;20088;-54
2021/07/02 02:34:43;;;;;;;13.13;7.68;;;14.60;99.90;;;;;;5031950;28;20108;-54
2021/07/02 02:37:09;;;;;;;12.77;7.55;;;14.70;99.90;;;;;;5032612;28;20104;-54
2021/07/02 02:39:35;;;;;;;13.18;7.97;;;14.70;99.90;;;;;;5032402;28;20057;-54
2021/07/02 02:42:00;;;;;;;12.75;7.55;;;14.70;99.90;;;;;;5032640;28;20030;-54
2021/07/02 02:44:26;;;;;;;13.25;7.47;;;14.70;99.90;;;;;;5032447;28;20120;-54
2021/07/02 02:46:52;;;;;;;14.02;7.70;;;14.70;99.90;;;;;;5032371;28;20033;-54
2021/07/02 02:49:17;;;;;;;11.88;7.25;;;14.70;99.90;;;;;;5032506;28;20034;-54
2021/07/02 02:51:43;;;;;;;13.95;7.53;;;14.70;99.90;;;;;;5032203;28;20028;-54
2021/07/02 02:54:09;;;;;;;13.07;7.88;;;14.70;99.90;;;;;;5032394;28;20099;-54
2021/07/02 02:56:35;;;;;;;13.30;6.80;;;14.60;99.90;;;;;;5031971;28;20026;-54
2021/07/02 02:59:00;;;;;;;13.85;7.90;;;14.60;99.90;;;;;;5032196;28;20048;-54
2021/07/02 03:01:26;;;;;;;11.88;8.00;;;14.60;99.90;;;;;;5031836;28;20025;-54
2021/07/02 03:03:51;;;;;;;15.32;8.02;;;14.70;99.90;;;;;;5032301;28;20502;-54
2021/07/02 03:06:17;;;;;;;16.00;8.52;;;14.60;99.90;;;;;;5031915;28;20049;-54
2021/07/02 03:08:43;;;;;;;16.50;8.10;;;14.50;99.90;;;;;;5031919;28;20022;-54
2021/07/02 03:11:08;;;;;;;14.18;8.20;;;14.60;99.90;;;;;;5032592;28;20034;-54
2021/07/02 03:13:34;;;;;;;17.83;8.10;;;14.60;99.90;;;;;;5031785;28;20036;-54
2021/07/02 03:16:00;;;;;;;15.82;8.20;;;14.70;99.90;;;;;;5031872;28;20088;-54
2021/07/02 03:18:26;;;;;;;16.15;8.48;;;14.70;99.90;;;;;;5031828;28;20021;-54
2021/07/02 03:20:51;;;;;;;13.02;8.45;;;14.60;99.90;;;;;;5031757;28;20076;-54
2021/07/02 03:23:17;;;;;;;16.98;8.23;;;14.60;99.90;;;;;;5031802;28;20026;-54
2021/07/02 03:25:43;;;;;;;17.67;8.88;;;14.60;99.90;;;;;;5031543;28;20071;-54
2021/07/02 03:28:08;;;;;;;18.67;8.73;;;14.60;99.90;;;;;;5031557;28;20029;-54
2021/07/02 03:30:34;;;;;;;16.85;8.73;;;14.60;99.90;;;;;;5029971;28;20452;-54
2021/07/02 03:33:00;;;;;;;17.15;8.77;;;14.60;99.90;;;;;;5031549;28;20029;-54
2021/07/02 03:35:26;;;;;;;15.25;8.38;;;14.60;99.90;;;;;;5031602;28;20470;-54
2021/07/02 03:37:52;;;;;;;16.70;8.85;;;14.60;99.90;;;;;;5031364;28;20086;-54
2021/07/02 03:40:17;;;;;;;20.83;8.93;;;14.60;99.90;;;;;;5031491;28;20522;-54
2021/07/02 03:42:43;;;;;;;18.02;9.30;;;14.60;99.90;;;;;;5031613;28;20030;-54
2021/07/02 03:45:09;;;;;;;15.80;8.63;;;14.60;99.90;;;;;;5031226;28;20025;-54
2021/07/02 03:47:35;;;;;;;15.05;8.95;;;14.40;99.90;;;;;;5029363;28;20033;-53
2021/07/02 03:50:01;;;;;;;18.35;9.05;;;14.30;99.90;;;;;;5031094;28;20037;-54
2021/07/02 03:52:27;;;;;;;15.32;8.18;;;14.30;99.90;;;;;;5031111;28;20394;-54
2021/07/02 03:54:53;;;;;;;14.73;8.82;;;14.20;99.90;;;;;;5031298;28;20025;-54
2021/07/02 03:57:19;;;;;;;15.77;8.73;;;14.00;99.90;;;;;;5031257;28;20029;-54
2021/07/02 03:59:48;;;;;;;16.30;8.38;;;13.90;99.90;;;;;;5031093;28;20028;-54
2021/07/02 04:02:14;;;;;;;13.05;8.65;;;13.90;99.90;;;;;;5029812;28;20413;-54
2021/07/02 04:04:41;;;;;;;15.98;9.05;;;14.00;99.90;;;;;;5031191;28;20390;-54
2021/07/02 04:07:08;;;;;;;16.38;8.82;;;14.00;99.90;;;;;;5029671;28;20037;-54
2021/07/02 04:09:34;;;;;;;15.77;9.40;;;14.00;99.90;;;;;;5029648;28;20033;-55
2021/07/02 04:12:00;;;;;;;16.27;9.32;;;14.10;99.90;;;;;;5030840;28;20450;-54
2021/07/02 04:14:27;;;;;;;17.77;9.52;;;14.20;99.90;;;;;;5031068;28;20017;-54
2021/07/02 04:16:53;;;;;;;17.63;9.23;;;14.20;99.90;;;;;;5031501;28;20430;-54
2021/07/02 04:19:19;;;;;;;19.27;9.27;;;14.10;99.90;;;;;;5031087;28;20486;-53
2021/07/02 04:21:46;;;;;;;23.35;9.90;;;14.00;99.90;;;;;;5030950;28;20036;-54
2021/07/02 04:24:12;;;;;;;14.43;9.35;;;14.00;99.90;;;;;;5030987;28;20036;-54
2021/07/02 04:26:37;;;;;;;17.17;8.95;;;13.90;99.90;;;;;;5030892;28;20021;-54
2021/07/02 04:29:03;;;;;;;15.63;8.70;;;14.00;99.90;;;;;;5029685;28;20021;-54
2021/07/02 04:31:29;;;;;;;14.63;9.00;;;13.90;99.90;;;;;;5029160;28;20057;-54
2021/07/02 04:33:54;;;;;;;16.45;8.00;;;13.90;99.90;;;;;;5030925;28;20532;-54
2021/07/02 04:36:20;;;;;;;15.70;9.18;;;13.90;99.90;;;;;;5030981;28;20029;-54
2021/07/02 04:38:46;;;;;;;17.17;8.38;;;14.00;99.90;;;;;;5031395;28;20025;-54
2021/07/02 04:41:11;;;;;;;17.38;8.40;;;14.10;99.90;;;;;;5030726;28;20032;-54
2021/07/02 04:43:37;;;;;;;13.35;8.50;;;14.20;99.90;;;;;;5030801;28;20036;-54
2021/07/02 04:46:03;;;;;;;17.40;8.25;;;14.20;99.90;;;;;;5030821;28;20032;-54
2021/07/02 04:48:28;;;;;;;19.55;8.73;;;14.30;99.90;;;;;;5030514;28;20038;-54
2021/07/02 04:50:54;;;;;;;14.13;8.48;;;14.40;99.90;;;;;;5029127;28;20036;-54
2021/07/02 04:53:20;;;;;;;16.42;8.57;;;14.40;99.90;;;;;;5030445;28;20175;-54
2021/07/02 04:55:46;;;;;;;17.05;8.68;;;14.40;99.90;;;;;;5030558;28;20092;-54
2021/07/02 04:58:12;;;;;;;15.23;8.90;;;14.50;99.90;;;;;;5031362;28;20109;-54
2021/07/02 05:00:38;;;;;;;15.48;8.88;;;14.60;99.90;;;;;;5034304;28;20030;-53
2021/07/02 05:03:05;;;;;;;15.95;8.57;;;14.60;99.90;;;;;;5034129;28;20033;-56
2021/07/02 05:05:31;;;;;;;13.77;7.97;;;14.60;99.90;;;;;;5034296;28;20036;-54
2021/07/02 05:07:57;;;;;;;20.90;8.88;;;14.70;99.90;;;;;;5034020;28;20022;-53
2021/07/02 05:10:23;;;;;;;16.20;8.30;;;14.70;99.90;;;;;;5034260;28;20040;-53
2021/07/02 05:12:49;;;;;;;19.63;8.52;;;14.70;99.90;;;;;;5033985;28;20454;-53
2021/07/02 05:15:15;;;;;;;16.17;8.25;;;14.80;99.90;;;;;;5034112;28;20083;-53
2021/07/02 05:17:41;;;;;;;15.52;8.95;;;14.80;99.90;;;;;;5034021;28;20087;-53
2021/07/02 05:20:07;;;;;;;13.45;9.02;;;14.90;99.90;;;;;;5033899;28;20026;-53
2021/07/02 05:22:32;;;;;;;16.55;8.95;;;14.90;99.90;;;;;;5034030;28;20030;-53
2021/07/02 05:24:58;;;;;;;21.65;9.50;;;14.90;99.90;;;;;;5033920;28;20029;-53
2021/07/02 05:27:24;;;;;;;22.02;9.60;;;15.00;99.90;;;;;;5032526;28;20025;-53
2021/07/02 05:29:50;;;;;;;20.05;9.60;;;15.10;99.90;;;;;;5033809;28;20467;-53
2021/07/02 05:32:15;;;;;;;18.58;9.18;;;15.20;99.90;;;;;;5033705;28;20128;-53
2021/07/02 05:34:41;;;;;;;21.65;10.20;;;15.30;99.90;;;;;;5033808;28;20022;-53
2021/07/02 05:37:06;;;;;;;22.08;10.13;;;15.40;99.90;;;;;;5032411;28;20509;-54
2021/07/02 05:39:32;;;;;;;19.17;9.80;;;15.50;99.90;;;;;;5033884;28;20029;-54
2021/07/02 05:41:58;;;;;;;20.10;10.32;;;15.50;99.90;;;;;;5033580;28;20022;-53
2021/07/02 05:44:24;;;;;;;20.95;10.02;;;15.50;99.90;;;;;;5033656;28;20463;-53
2021/07/02 05:46:49;;;;;;;24.48;11.05;;;15.60;99.90;;;;;;5032365;28;20021;-54
2021/07/02 05:49:16;;;;;;;25.00;11.70;;;15.60;99.90;;;;;;5033389;28;20043;-53
2021/07/02 05:51:41;;;;;;;25.52;11.82;;;15.70;99.90;;;;;;5033190;28;20514;-54
2021/07/02 05:54:08;;;;;;;17.48;11.27;;;15.80;99.90;;;;;;5033518;28;20025;-54
2021/07/02 05:56:34;;;;;;;24.52;11.93;;;15.90;99.90;;;;;;5033340;28;20030;-54
2021/07/02 05:59:01;;;;;;;21.67;12.57;;;15.90;99.90;;;;;;5033326;28;20032;-54
2021/07/02 06:01:28;;;;;;;25.90;13.13;;;16.00;99.90;;;;;;5033178;28;20029;-54
2021/07/02 06:03:53;;;;;;;27.98;12.55;;;16.00;99.90;;;;;;5033138;28;20026;-54
2021/07/02 06:06:20;;;;;;;24.33;13.63;;;16.00;99.90;;;;;;5032983;28;20026;-54
2021/07/02 06:08:46;;;;;;;27.67;14.38;;;16.10;99.90;;;;;;5032132;28;20113;-54
2021/07/02 06:11:12;;;;;;;21.90;13.95;;;16.20;99.90;;;;;;5031769;28;20024;-54
2021/07/02 06:13:38;;;;;;;29.92;14.77;;;16.30;99.90;;;;;;5032983;28;20108;-54
2021/07/02 06:16:05;;;;;;;25.88;14.55;;;16.40;99.90;;;;;;5033032;28;20105;-54
2021/07/02 06:18:30;;;;;;;22.00;14.73;;;16.60;99.90;;;;;;5032907;28;20132;-54
2021/07/02 06:20:56;;;;;;;23.60;15.23;;;16.90;99.90;;;;;;5031555;28;20461;-54
2021/07/02 06:23:23;;;;;;;25.38;14.90;;;17.10;99.90;;;;;;5032934;28;20037;-54
2021/07/02 06:25:49;;;;;;;28.85;16.38;;;17.10;99.90;;;;;;5029168;28;20478;-54
2021/07/02 06:28:16;;;;;;;24.50;14.93;;;17.30;99.90;;;;;;5032161;28;20021;-54
2021/07/02 06:30:43;;;;;;;27.52;15.77;;;17.60;99.90;;;;;;5031677;28;20046;-54
2021/07/02 06:33:09;;;;;;;25.00;16.45;;;17.90;99.90;;;;;;5032258;28;20561;-54
2021/07/02 06:35:35;;;;;;;27.40;16.50;;;18.10;99.90;;;;;;5031424;28;20022;-53
2021/07/02 06:38:01;;;;;;;27.10;16.58;;;18.30;99.90;;;;;;5031908;28;20025;-53
2021/07/02 06:40:27;;;;;;;29.85;18.33;;;18.70;99.90;;;;;;5032164;28;20018;-53
2021/07/02 06:42:54;;;;;;;25.40;17.67;;;18.90;99.90;;;;;;5031851;28;20386;-53
2021/07/02 06:45:20;;;;;;;26.35;17.50;;;19.60;99.90;;;;;;5027977;28;20021;-53
2021/07/02 06:47:57;;;;;;;26.13;17.55;;;19.90;99.90;;;;;;5016798;28;20029;-53
2021/07/02 06:50:29;;;;;;;30.15;18.75;;;20.20;99.90;;;;;;5025403;28;20554;-54
2021/07/02 06:52:56;;;;;;;27.23;17.98;;;20.40;99.90;;;;;;5022157;28;20061;-54
2021/07/02 06:55:21;;;;;;;29.13;17.60;;;20.40;99.90;;;;;;5020268;28;20033;-54
2021/07/02 06:57:47;;;;;;;28.52;19.05;;;20.00;99.90;;;;;;5030110;28;20041;-54
2021/07/02 07:00:16;;;;;;;27.95;18.58;;;19.70;99.90;;;;;;5028029;28;20029;-54
2021/07/02 07:02:42;;;;;;;27.45;18.58;;;19.80;99.90;;;;;;5025651;28;20061;-54
2021/07/02 07:05:08;;;;;;;30.08;20.08;;;20.20;99.90;;;;;;5026785;28;20482;-54
2021/07/02 07:07:34;;;;;;;26.38;18.38;;;20.60;99.90;;;;;;5023871;28;20022;-54
2021/07/02 07:10:00;;;;;;;29.98;20.05;;;20.50;99.90;;;;;;5027319;28;20036;-53
2021/07/02 07:12:25;;;;;;;30.80;19.85;;;20.00;99.90;;;;;;5029501;28;20029;-53
2021/07/02 07:14:51;;;;;;;32.42;20.90;;;19.70;99.90;;;;;;5032292;28;20088;-53
2021/07/02 07:17:17;;;;;;;27.75;19.20;;;20.10;99.90;;;;;;5020554;28;20173;-53
2021/07/02 07:19:43;;;;;;;27.88;17.92;;;21.50;99.90;;;;;;5027079;28;20036;-53
2021/07/02 07:22:09;;;;;;;25.67;18.33;;;23.50;99.90;;;;;;5020013;28;20029;-54
2021/07/02 07:24:35;;;;;;;23.10;17.10;;;24.70;99.90;;;;;;5023113;28;20044;-54
2021/07/02 07:27:00;;;;;;;22.33;16.35;;;25.20;99.90;;;;;;5017241;28;20037;-54
2021/07/02 07:29:26;;;;;;;26.10;17.10;;;26.50;99.90;;;;;;5022883;28;20474;-54
2021/07/02 07:31:53;;;;;;;24.13;17.15;;;26.90;97.00;;;;;;5017893;28;20050;-55
2021/07/02 07:34:25;;;;;;;20.38;16.65;;;26.00;98.00;;;;;;5027589;28;20475;-55
2021/07/02 07:36:55;;;;;;;23.27;16.02;;;27.20;97.10;;;;;;5019101;28;20542;-54
2021/07/02 07:39:20;;;;;;;21.05;15.45;;;27.60;94.80;;;;;;5021101;28;20025;-55
2021/07/02 07:41:49;;;;;;;23.65;15.23;;;26.70;94.60;;;;;;5019476;28;20079;-55
2021/07/02 07:44:15;;;;;;;18.92;14.90;;;27.00;94.90;;;;;;5016958;28;20403;-54
2021/07/02 07:46:41;;;;;;;22.58;15.18;;;27.40;94.00;;;;;;5015602;28;20041;-54
2021/07/02 07:49:06;;;;;;;15.05;11.75;;;26.90;94.50;;;;;;5016086;28;20052;-56
2021/07/02 07:51:36;;;;;;;12.38;9.93;;;27.00;92.70;;;;;;5022537;28;20404;-54
2021/07/02 07:54:02;;;;;;;12.85;10.25;;;27.00;91.20;;;;;;5020807;28;20022;-55
2021/07/02 07:56:29;;;;;;;9.13;7.63;;;25.80;92.50;;;;;;5021101;28;20036;-54
2021/07/02 07:58:56;;;;;;;13.32;8.82;;;26.50;91.40;;;;;;5023582;28;20431;-54
2021/07/02 08:01:21;;;;;;;11.82;9.00;;;27.50;90.00;;;;;;5026375;28;20116;-53
2021/07/02 08:03:47;;;;;;;12.15;10.10;;;28.30;88.70;;;;;;5026873;28;20144;-54
2021/07/02 08:06:13;;;;;;;11.05;9.57;;;28.80;85.50;;;;;;5026012;28;20098;-54
2021/07/02 08:08:38;;;;;;;11.48;9.95;;;28.70;83.50;;;;;;5023501;28;20478;-53
2021/07/02 08:11:04;;;;;;;12.07;9.52;;;29.00;83.10;;;;;;5021556;28;20025;-53
2021/07/02 08:13:30;;;;;;;10.98;8.60;;;28.50;80.40;;;;;;5026261;28;20088;-53
2021/07/02 08:15:56;;;;;;;11.13;6.72;;;27.90;80.60;;;;;;5024431;28;20020;-54
2021/07/02 08:18:23;;;;;;;10.65;6.63;;;27.80;80.70;;;;;;5023498;28;20069;-54
2021/07/02 08:20:49;;;;;;;9.93;7.20;;;28.10;78.90;;;;;;5021509;28;20072;-54
2021/07/02 08:23:14;;;;;;;12.13;7.57;;;28.30;78.60;;;;;;5023675;28;20029;-54
2021/07/02 08:25:40;;;;;;;11.75;8.07;;;28.40;79.10;;;;;;5022503;28;20109;-54
2021/07/02 08:30:51;;;;;;;12.60;8.63;;;27.80;80.90;;;;;;5021649;28;20104;-53
2021/07/02 08:33:18;;;;;;;9.02;7.22;;;28.40;78.70;;;;;;5023912;28;20505;-54
2021/07/02 08:35:45;;;;;;;10.18;6.50;;;29.40;76.60;;;;;;5026685;28;20500;-54
2021/07/02 08:38:12;;;;;;;9.50;6.95;;;29.40;73.00;;;;;;5022752;28;20032;-54
2021/07/02 08:40:38;;;;;;;8.15;7.10;;;29.10;73.40;;;;;;5027232;28;20271;-54
2021/07/02 08:43:03;;;;;;;9.68;6.13;;;27.70;75.70;;;;;;5023809;28;20044;-54
2021/07/02 08:45:29;;;;;;;8.95;6.20;;;28.30;76.50;;;;;;5027572;28;20088;-54
2021/07/02 08:47:56;;;;;;;10.40;6.75;;;28.50;74.70;;;;;;5028375;28;20040;-54
2021/07/02 08:50:22;;;;;;;8.68;6.55;;;28.40;74.20;;;;;;5028005;28;20025;-55
2021/07/02 08:52:48;;;;;;;10.98;8.05;;;28.40;75.90;;;;;;5032348;28;20374;-55
2021/07/02 08:55:14;;;;;;;14.77;8.80;;;28.20;77.40;;;;;;5030381;28;20032;-56
2021/07/02 08:57:40;;;;;;;12.85;8.45;;;27.10;79.40;;;;;;5026651;28;20034;-55
2021/07/02 09:00:07;;;;;;;13.32;8.57;;;27.90;78.10;;;;;;5030106;28;20041;-55
2021/07/02 09:02:35;;;;;;;10.52;7.93;;;28.70;75.20;;;;;;5027885;28;20021;-55
2021/07/02 09:05:24;;;;;;;13.20;8.43;;;29.10;74.50;;;;;;5031087;28;20022;-56
2021/07/02 09:07:49;;;;;;;11.05;7.95;;;29.30;71.40;;;;;;5031699;28;20033;-55
2021/07/02 09:10:15;;;;;;;13.82;8.77;;;28.50;72.80;;;;;;5027774;28;20032;-55
2021/07/02 09:12:51;;;;;;;13.23;8.25;;;27.80;76.60;;;;;;5025612;28;20044;-56
2021/07/02 09:15:17;;;;;;;10.32;7.95;;;27.40;76.40;;;;;;5028130;28;20104;-55
2021/07/02 09:17:45;;;;;;;11.98;8.23;;;28.20;75.60;;;;;;5029693;28;20030;-55
2021/07/02 09:20:19;;;;;;;13.27;9.55;;;27.70;75.70;;;;;;5031703;28;20096;-55
2021/07/02 09:22:48;;;;;;;12.65;9.15;;;27.50;78.40;;;;;;5029288;28;20037;-56
2021/07/02 09:25:26;;;;;;;10.95;8.73;;;26.50;81.00;;;;;;5029263;28;20152;-55
2021/07/02 09:27:55;;;;;;;11.52;9.15;;;27.00;79.30;;;;;;5023985;28;20390;-55
2021/07/02 09:30:27;;;;;;;16.17;9.15;;;27.30;78.00;;;;;;5029115;28;20120;-55
2021/07/02 09:32:55;;;;;;;13.77;8.85;;;28.00;75.60;;;;;;5028563;28;20108;-55
2021/07/02 09:35:23;;;;;;;14.50;8.98;;;27.70;76.90;;;;;;5031271;28;20277;-55
2021/07/02 09:37:55;;;;;;;12.10;7.68;;;27.70;76.10;;;;;;5030452;28;20056;-55
2021/07/02 09:40:30;;;;;;;9.63;6.35;;;28.40;73.50;;;;;;5025668;28;20234;-55
2021/07/02 09:43:10;;;;;;;9.90;7.07;;;27.30;72.00;;;;;;5023395;28;20196;-55
2021/07/02 09:45:52;;;;;;;27.42;8.43;;;27.30;73.50;;;;;;5025996;28;20108;-55
2021/07/02 09:48:23;;;;;;;10.60;7.88;;;28.00;72.40;;;;;;5031206;28;20087;-55
2021/07/02 09:50:55;;;;;;;14.03;9.67;;;28.40;73.00;;;;;;5028778;28;20191;-55
2021/07/02 09:53:34;;;;;;;13.80;8.88;;;28.00;71.70;;;;;;5028598;28;20401;-55
2021/07/02 09:56:02;;;;;;;13.73;7.80;;;28.00;74.00;;;;;;5028761;28;20111;-55
2021/07/02 09:58:39;;;;;;;13.10;8.73;;;27.90;75.40;;;;;;5027331;28;20075;-56
2021/07/02 10:01:09;;;;;;;16.15;9.40;;;27.50;76.70;;;;;;5026913;28;20201;-55
2021/07/02 10:03:38;;;;;;;12.00;8.27;;;27.10;77.70;;;;;;5025607;28;20033;-55
2021/07/02 10:06:10;;;;;;;14.93;9.27;;;27.80;76.20;;;;;;5026459;28;20025;-55
2021/07/02 10:08:37;;;;;;;11.38;8.93;;;28.30;74.50;;;;;;5028499;28;20502;-56
2021/07/02 10:11:08;;;;;;;12.95;9.05;;;28.80;72.90;;;;;;5028486;28;20086;-56
2021/07/02 10:13:39;;;;;;;16.58;10.60;;;28.20;74.60;;;;;;5032695;28;20033;-55
2021/07/02 10:16:07;;;;;;;15.95;10.15;;;27.00;75.80;;;;;;5027898;28;20033;-55
2021/07/02 10:18:37;;;;;;;14.85;10.18;;;27.30;77.10;;;;;;5030678;28;20024;-55
2021/07/02 10:21:05;;;;;;;16.23;9.75;;;26.80;78.30;;;;;;5028548;28;20108;-55
2021/07/02 10:23:41;;;;;;;12.38;10.30;;;28.10;75.70;;;;;;5027488;28;20406;-55
2021/07/02 10:26:08;;;;;;;13.82;10.52;;;28.30;72.90;;;;;;5020595;28;20495;-56
2021/07/02 10:28:36;;;;;;;14.90;11.02;;;27.70;75.20;;;;;;5026321;28;20033;-56
2021/07/02 10:31:03;;;;;;;17.52;11.52;;;27.30;76.70;;;;;;5023364;28;20090;-55
2021/07/02 10:33:32;;;;;;;18.23;10.63;;;26.30;79.40;;;;;;5027114;28;20171;-56
2021/07/02 10:36:02;;;;;;;12.93;9.45;;;25.90;82.00;;;;;;5025641;28;20056;-55
2021/07/02 10:38:43;;;;;;;16.73;10.90;;;25.70;81.30;;;;;;5028681;28;20720;-55
2021/07/02 10:41:18;;;;;;;15.70;10.32;;;25.80;80.80;;;;;;5027512;28;20116;-55
2021/07/02 10:44:07;;;;;;;16.25;9.38;;;25.80;80.80;;;;;;5027360;28;20034;-55
2021/07/02 10:46:35;;;;;;;13.38;9.90;;;25.80;78.90;;;;;;5026197;28;20033;-55
2021/07/02 10:49:03;;;;;;;13.45;9.38;;;26.40;79.50;;;;;;5028331;28;20026;-55
2021/07/02 10:51:32;;;;;;;14.90;10.63;;;27.70;76.40;;;;;;5028049;28;20033;-56
2021/07/02 10:54:16;;;;;;;13.25;9.43;;;28.10;73.50;;;;;;5028759;28;20112;-56
2021/07/02 10:56:58;;;;;;;12.35;9.88;;;27.00;75.20;;;;;;5026960;28;20013;-55
2021/07/02 10:59:36;;;;;;;15.73;9.57;;;27.20;75.00;;;;;;5026373;28;20034;-55
2021/07/02 11:02:05;;;;;;;12.73;9.77;;;27.20;76.80;;;;;;5029360;28;20029;-55
2021/07/02 11:04:34;;;;;;;13.77;10.07;;;28.20;72.70;;;;;;5027478;28;20060;-55
2021/07/02 11:07:19;;;;;;;13.98;10.07;;;28.40;71.60;;;;;;5044530;28;20029;-55
2021/07/02 11:09:56;;;;;;;13.77;10.57;;;28.40;73.10;;;;;;5029865;28;20041;-55
2021/07/02 11:12:23;;;;;;;19.08;12.98;;;28.30;73.10;;;;;;5028913;28;20026;-56
2021/07/02 11:14:52;;;;;;;14.25;11.52;;;28.10;72.90;;;;;;5030061;28;20574;-56
2021/07/02 11:17:26;;;;;;;16.23;11.43;;;28.60;72.70;;;;;;5022559;28;20029;-56
2021/07/02 11:20:07;;;;;;;13.60;10.52;;;29.30;70.90;;;;;;5021378;28;20163;-56
2021/07/02 11:22:37;;;;;;;14.43;10.43;;;29.10;69.60;;;;;;5015693;28;20026;-56
2021/07/02 11:25:31;;;;;;;19.65;11.70;;;28.30;71.20;;;;;;5024501;28;20057;-56
2021/07/02 11:31:04;;;;;;;14.05;10.55;;;29.00;69.20;;;;;;5014601;28;20063;-55
2021/07/02 11:33:29;;;;;;;16.58;10.82;;;29.90;69.30;;;;;;5023147;28;20033;-56
2021/07/02 11:36:00;;;;;;;11.27;9.75;;;30.00;66.80;;;;;;5027420;28;20466;-56
2021/07/02 11:38:28;;;;;;;13.70;10.73;;;29.60;65.90;;;;;;5027264;28;20036;-56
2021/07/02 11:40:59;;;;;;;17.70;10.50;;;29.90;64.30;;;;;;5024134;28;20028;-55
2021/07/02 11:43:41;;;;;;;13.33;10.47;;;30.70;63.30;;;;;;5026459;28;20029;-55
2021/07/02 11:46:13;;;;;;;16.08;10.52;;;31.80;62.40;;;;;;5025196;28;20038;-56
2021/07/02 11:48:41;;;;;;;12.25;10.10;;;29.80;63.80;;;;;;5026075;28;20033;-56
2021/07/02 11:51:13;;;;;;;13.23;11.50;;;29.50;66.90;;;;;;5024319;28;20029;-55
2021/07/02 11:53:46;;;;;;;14.75;10.90;;;28.90;66.30;;;;;;5024999;28;20274;-56
2021/07/02 11:56:17;;;;;;;15.15;11.00;;;29.00;67.50;;;;;;5025801;28;20026;-55
2021/07/02 11:58:48;;;;;;;16.20;11.57;;;28.60;66.60;;;;;;5027409;28;20025;-56
2021/07/02 12:01:19;;;;;;;13.23;10.80;;;28.30;69.40;;;;;;5026514;28;20199;-56
2021/07/02 12:03:56;;;;;;;11.25;9.90;;;29.50;66.80;;;;;;5024303;28;20091;-56
2021/07/02 12:06:33;;;;;;;12.02;10.55;;;29.60;65.00;;;;;;5024605;28;20041;-55
2021/07/02 12:09:30;;;;;;;14.30;11.48;;;28.70;66.10;;;;;;5027481;28;20021;-56
2021/07/02 12:12:00;;;;;;;16.58;12.73;;;28.60;68.40;;;;;;5030444;28;20474;-56
2021/07/02 12:14:32;;;;;;;16.58;12.05;;;28.40;68.80;;;;;;5027374;28;20025;-56
2021/07/02 12:16:59;;;;;;;15.30;11.15;;;28.00;69.00;;;;;;5027925;28;20036;-55
2021/07/02 12:19:28;;;;;;;13.65;10.75;;;28.90;67.70;;;;;;5026703;28;20405;-56
2021/07/02 12:22:06;;;;;;;13.50;11.00;;;30.40;65.10;;;;;;5028059;28;20040;-56
2021/07/02 12:24:35;;;;;;;14.13;11.65;;;30.70;63.80;;;;;;5019614;28;20056;-56
2021/07/02 12:27:29;;;;;;;13.73;11.40;;;31.10;61.30;;;;;;5028662;28;20033;-56
2021/07/02 12:29:58;;;;;;;13.23;10.30;;;32.40;60.30;;;;;;5019788;28;20072;-55
2021/07/02 12:32:28;;;;;;;14.65;10.82;;;32.60;59.50;;;;;;5023932;28;20050;-56
2021/07/02 12:34:54;;;;;;;14.10;11.05;;;33.40;57.20;;;;;;5024228;28;20064;-56
2021/07/02 12:37:23;;;;;;;13.80;10.73;;;33.10;57.30;;;;;;5015306;28;20116;-56
2021/07/02 12:39:54;;;;;;;17.27;10.73;;;31.60;59.20;;;;;;5021298;28;20485;-56
2021/07/02 12:42:42;;;;;;;11.93;10.70;;;29.80;62.90;;;;;;5019250;28;20034;-55
2021/07/02 12:45:12;;;;;;;11.20;10.00;;;29.60;62.80;;;;;;5022004;28;20041;-55